createdAt,value
2022-12-09T00:02:23.616Z,21.45
2022-12-09T00:04:50.510Z,23.13
2022-12-09T00:07:17.146Z,23.38
2022-12-09T00:09:43.730Z,21.65
2022-12-09T00:12:10.208Z,22.15
2022-12-09T00:14:36.889Z,22.48
2022-12-09T00:17:04.024Z,23.63
2022-12-09T00:19:30.641Z,23.13
2022-12-09T00:21:57.165Z,24.67
2022-12-09T00:24:23.969Z,24.88
2022-12-09T00:26:50.487Z,23.75
2022-12-09T00:29:17.063Z,23.63
2022-12-09T00:31:43.718Z,24.02
2022-12-09T00:34:12.511Z,23.88
2022-12-09T00:36:39.505Z,24.05
2022-12-09T00:39:06.032Z,22.80
2022-12-09T00:41:32.686Z,24.80
2022-12-09T00:43:59.422Z,22.67
2022-12-09T00:46:26.118Z,23.45
2022-12-09T00:48:52.778Z,24.33
2022-12-09T00:51:21.523Z,22.67
2022-12-09T00:53:48.700Z,23.80
2022-12-09T00:56:15.341Z,23.13
2022-12-09T00:58:41.897Z,24.00
2022-12-09T01:01:08.652Z,24.20
2022-12-09T01:03:36.223Z,23.42
2022-12-09T01:06:10.747Z,25.63
2022-12-09T01:08:39.294Z,23.85
2022-12-09T01:11:17.426Z,23.83
2022-12-09T01:13:45.725Z,22.98
2022-12-09T01:16:17.557Z,22.67
2022-12-09T01:18:45.070Z,22.63
2022-12-09T01:21:12.195Z,23.52
2022-12-09T01:23:40.202Z,25.20
2022-12-09T01:26:07.383Z,23.48
2022-12-09T01:28:35.511Z,22.88
2022-12-09T01:31:08.034Z,24.10
2022-12-09T01:33:34.779Z,23.40
2022-12-09T01:36:05.367Z,24.17
2022-12-09T01:38:32.101Z,23.50
2022-12-09T01:40:58.683Z,23.15
2022-12-09T01:43:25.612Z,23.42
2022-12-09T01:45:52.355Z,24.27
2022-12-09T01:48:21.449Z,23.33
2022-12-09T01:50:52.155Z,23.75
2022-12-09T01:53:20.180Z,23.48
2022-12-09T01:55:46.872Z,24.13
2022-12-09T01:58:14.483Z,23.73
2022-12-09T02:00:41.711Z,23.50
2022-12-09T02:03:09.399Z,22.38
2022-12-09T02:05:36.958Z,23.70
2022-12-09T02:08:07.784Z,22.75
2022-12-09T02:10:37.087Z,24.17
2022-12-09T02:13:21.325Z,24.27
2022-12-09T02:15:55.046Z,22.80
2022-12-09T02:18:38.651Z,25.52
2022-12-09T02:21:35.355Z,24.50
2022-12-09T02:24:12.984Z,23.67
2022-12-09T02:26:43.261Z,23.13
2022-12-09T02:29:16.555Z,24.40
2022-12-09T02:32:13.194Z,22.58
2022-12-09T02:34:54.176Z,22.75
2022-12-09T02:37:24.744Z,24.20
2022-12-09T02:40:00.207Z,24.33
2022-12-09T02:42:32.463Z,23.15
2022-12-09T02:45:02.637Z,23.15
2022-12-09T02:47:31.584Z,24.70
2022-12-09T02:50:02.830Z,23.50
2022-12-09T02:52:31.019Z,23.17
2022-12-09T02:55:00.414Z,25.15
2022-12-09T02:57:29.082Z,24.67
2022-12-09T02:59:56.142Z,24.52
2022-12-09T03:02:32.477Z,23.88
2022-12-09T03:05:08.945Z,23.60
2022-12-09T03:07:55.878Z,24.42
2022-12-09T03:10:28.961Z,23.27
2022-12-09T03:13:03.812Z,23.27
2022-12-09T03:15:32.293Z,24.25
2022-12-09T03:17:59.922Z,24.30
2022-12-09T03:20:29.029Z,24.67
2022-12-09T03:23:00.181Z,24.85
2022-12-09T03:25:42.268Z,23.42
2022-12-09T03:28:22.319Z,24.50
2022-12-09T03:30:48.882Z,24.55
2022-12-09T03:33:16.526Z,23.75
2022-12-09T03:35:46.847Z,23.65
2022-12-09T03:38:17.209Z,23.97
2022-12-09T03:40:44.630Z,25.52
2022-12-09T03:43:33.570Z,25.30
2022-12-09T03:46:00.750Z,23.65
2022-12-09T03:48:27.452Z,24.15
2022-12-09T03:50:58.920Z,23.65
2022-12-09T03:53:45.002Z,24.15
2022-12-09T03:56:18.897Z,24.38
2022-12-09T03:58:46.571Z,23.67
2022-12-09T04:01:13.932Z,24.33
2022-12-09T04:03:45.035Z,23.60
2022-12-09T04:08:38.274Z,23.17
2022-12-09T04:11:04.948Z,21.83
2022-12-09T04:13:31.550Z,22.52
2022-12-09T04:15:58.094Z,20.20
2022-12-09T04:18:24.723Z,15.48
2022-12-09T04:20:51.474Z,17.60
2022-12-09T04:23:18.185Z,19.00
2022-12-09T04:25:44.801Z,21.83
2022-12-09T04:28:11.396Z,20.77
2022-12-09T04:30:38.341Z,21.77
2022-12-09T04:33:05.163Z,18.25
2022-12-09T04:35:31.928Z,16.27
2022-12-09T04:37:58.464Z,19.63
2022-12-09T04:40:25.217Z,18.45
2022-12-09T04:42:52.050Z,18.08
2022-12-09T04:45:18.716Z,18.08
2022-12-09T04:47:45.695Z,17.20
2022-12-09T04:50:13.156Z,16.73
2022-12-09T04:52:40.126Z,17.15
2022-12-09T04:55:07.779Z,17.98
2022-12-09T04:57:34.718Z,17.52
2022-12-09T05:00:01.830Z,16.83
2022-12-09T05:02:29.577Z,17.10
2022-12-09T05:04:56.818Z,15.60
2022-12-09T05:07:25.368Z,15.93
2022-12-09T05:09:52.303Z,15.07
2022-12-09T05:12:18.957Z,16.13
2022-12-09T05:14:45.491Z,16.17
2022-12-09T05:17:12.387Z,16.77
2022-12-09T05:19:39.376Z,17.27
2022-12-09T05:22:05.933Z,17.40
2022-12-09T05:24:32.874Z,17.15
2022-12-09T05:26:59.889Z,16.05
2022-12-09T05:29:26.586Z,18.02
2022-12-09T05:31:53.339Z,17.75
2022-12-09T05:34:20.496Z,17.60
2022-12-09T05:36:48.098Z,17.55
2022-12-09T05:39:14.754Z,17.08
2022-12-09T05:41:43.427Z,15.93
2022-12-09T05:44:11.748Z,16.55
2022-12-09T05:46:38.443Z,17.20
2022-12-09T05:49:05.775Z,15.95
2022-12-09T05:51:32.950Z,16.63
2022-12-09T05:54:03.752Z,15.75
2022-12-09T05:56:30.989Z,16.00
2022-12-09T05:58:58.412Z,15.52
2022-12-09T06:01:25.937Z,15.30
2022-12-09T06:03:53.544Z,16.65
2022-12-09T06:06:22.978Z,16.17
2022-12-09T06:08:50.151Z,16.55
2022-12-09T06:11:19.791Z,14.77
2022-12-09T06:13:47.221Z,16.42
2022-12-09T06:16:14.718Z,14.77
2022-12-09T06:18:41.832Z,15.85
2022-12-09T06:21:10.145Z,16.08
2022-12-09T06:23:38.043Z,16.30
2022-12-09T06:26:05.655Z,17.05
2022-12-09T06:28:33.206Z,15.90
2022-12-09T06:31:00.388Z,16.48
2022-12-09T06:33:53.663Z,18.30
2022-12-09T06:36:13.938Z,18.50
2022-12-09T06:38:40.604Z,18.10
2022-12-09T06:41:08.811Z,19.23
2022-12-09T06:43:35.749Z,17.98
2022-12-09T06:46:03.173Z,19.98
2022-12-09T06:48:30.335Z,19.88
2022-12-09T06:50:57.592Z,20.65
2022-12-09T06:53:24.196Z,20.05
2022-12-09T06:55:51.226Z,18.60
2022-12-09T06:58:18.118Z,20.23
2022-12-09T07:00:45.154Z,18.52
2022-12-09T07:03:13.032Z,19.48
2022-12-09T07:05:40.296Z,19.40
2022-12-09T07:08:07.749Z,20.65
2022-12-09T07:10:36.163Z,20.48
2022-12-09T07:13:03.035Z,21.48
2022-12-09T07:15:30.359Z,20.73
2022-12-09T07:17:57.301Z,21.98
2022-12-09T07:20:25.276Z,20.83
2022-12-09T07:22:52.287Z,19.83
2022-12-09T07:25:19.904Z,19.98
2022-12-09T07:27:47.106Z,20.15
2022-12-09T07:30:13.701Z,18.85
2022-12-09T07:32:40.823Z,18.70
2022-12-09T07:35:08.579Z,18.83
2022-12-09T07:37:35.539Z,17.77
2022-12-09T07:40:02.498Z,20.13
2022-12-09T07:42:29.531Z,17.52
2022-12-09T07:45:02.971Z,17.58
2022-12-09T07:47:29.688Z,17.88
2022-12-09T07:50:00.051Z,18.50
2022-12-09T07:52:29.537Z,20.13
2022-12-09T07:54:59.374Z,18.80
2022-12-09T07:57:26.163Z,18.05
2022-12-09T07:59:53.471Z,19.60
2022-12-09T08:02:20.236Z,18.98
2022-12-09T08:04:47.163Z,19.02
2022-12-09T08:07:14.707Z,19.25
2022-12-09T08:09:42.098Z,17.90
2022-12-09T08:12:11.714Z,18.00
2022-12-09T08:14:38.652Z,17.73
2022-12-09T08:17:06.509Z,17.77
2022-12-09T08:19:33.917Z,17.40
2022-12-09T08:22:01.141Z,17.27
2022-12-09T08:24:28.803Z,16.95
2022-12-09T08:26:55.942Z,18.10
2022-12-09T08:29:23.659Z,16.55
2022-12-09T08:31:51.501Z,18.00
2022-12-09T08:34:19.094Z,17.55
2022-12-09T08:36:46.504Z,16.65
2022-12-09T08:39:14.159Z,18.10
2022-12-09T08:41:41.289Z,17.48
2022-12-09T08:44:12.895Z,19.30
2022-12-09T08:46:41.764Z,19.88
2022-12-09T08:49:09.061Z,19.50
2022-12-09T08:51:36.784Z,18.33
2022-12-09T08:54:04.434Z,19.08
2022-12-09T08:56:32.107Z,19.55
2022-12-09T08:58:58.960Z,18.98
2022-12-09T09:01:32.684Z,18.65
2022-12-09T09:04:09.600Z,19.02
2022-12-09T09:06:41.498Z,17.92
2022-12-09T09:09:10.888Z,18.02
2022-12-09T09:11:38.416Z,18.50
2022-12-09T09:14:07.663Z,17.67
2022-12-09T09:16:39.829Z,18.08
2022-12-09T09:19:07.218Z,18.67
2022-12-09T09:21:35.721Z,16.70
2022-12-09T09:24:03.279Z,16.55
2022-12-09T09:26:30.261Z,16.52
2022-12-09T09:28:57.350Z,15.80
2022-12-09T09:31:25.079Z,15.95
2022-12-09T09:33:53.035Z,15.23
2022-12-09T09:36:23.635Z,15.48
2022-12-09T09:38:52.346Z,15.57
2022-12-09T09:41:25.526Z,13.50
2022-12-09T09:43:53.147Z,13.40
2022-12-09T09:46:35.880Z,14.30
2022-12-09T09:49:05.836Z,13.52
2022-12-09T09:51:34.522Z,14.38
2022-12-09T09:54:06.659Z,14.80
2022-12-09T09:56:41.145Z,13.30
2022-12-09T09:59:08.081Z,12.20
2022-12-09T10:01:37.020Z,12.27
2022-12-09T10:04:19.563Z,11.48
2022-12-09T10:07:07.453Z,14.57
2022-12-09T10:09:46.915Z,13.10
2022-12-09T10:12:47.186Z,13.60
2022-12-09T10:15:17.007Z,16.00
2022-12-09T10:17:51.194Z,15.35
2022-12-09T10:20:21.504Z,13.98
2022-12-09T10:22:52.325Z,14.20
2022-12-09T10:25:31.160Z,14.60
2022-12-09T10:28:12.888Z,16.17
2022-12-09T10:30:44.387Z,14.13
2022-12-09T10:33:17.461Z,13.30
2022-12-09T10:35:46.067Z,13.02
2022-12-09T10:38:16.246Z,14.02
2022-12-09T10:41:41.562Z,13.38
2022-12-09T10:44:19.793Z,13.40
2022-12-09T10:46:47.841Z,14.30
2022-12-09T10:49:21.665Z,14.13
2022-12-09T10:52:11.311Z,13.98
2022-12-09T10:55:12.573Z,14.15
2022-12-09T10:58:40.704Z,14.02
2022-12-09T11:01:42.424Z,15.25
2022-12-09T11:05:01.500Z,13.75
2022-12-09T11:08:04.414Z,14.68
2022-12-09T11:11:05.383Z,14.18
2022-12-09T11:14:06.270Z,13.77
2022-12-09T11:17:09.651Z,13.40
2022-12-09T11:20:19.973Z,14.13
2022-12-09T11:23:26.466Z,13.07
2022-12-09T11:26:38.445Z,12.75
2022-12-09T11:29:39.673Z,13.48
2022-12-09T11:32:40.876Z,13.40
2022-12-09T11:35:45.710Z,15.90
2022-12-09T11:38:52.232Z,13.30
2022-12-09T11:42:18.602Z,15.25
2022-12-09T11:45:41.364Z,14.68
2022-12-09T11:48:45.531Z,15.15
2022-12-09T11:51:50.330Z,16.67
2022-12-09T11:55:25.268Z,15.50
2022-12-09T11:58:29.268Z,16.60
2022-12-09T12:01:36.293Z,16.85
2022-12-09T12:04:48.294Z,17.52
2022-12-09T12:07:59.340Z,17.15
2022-12-09T12:11:25.797Z,17.38
2022-12-09T12:14:29.262Z,17.58
2022-12-09T12:17:35.334Z,17.08
2022-12-09T12:20:57.448Z,16.50
2022-12-09T12:24:23.376Z,16.15
2022-12-09T12:27:52.304Z,17.42
2022-12-09T12:31:20.829Z,17.58
2022-12-09T12:34:33.086Z,17.10
2022-12-09T12:37:58.495Z,15.88
2022-12-09T12:41:08.318Z,16.23
2022-12-09T12:44:36.397Z,15.80
2022-12-09T12:47:49.337Z,14.95
2022-12-09T12:51:27.267Z,13.05
2022-12-09T12:54:42.278Z,15.25
2022-12-09T12:58:06.405Z,17.00
2022-12-09T13:01:07.361Z,16.25
2022-12-09T13:04:26.269Z,17.52
2022-12-09T13:08:04.256Z,17.85
2022-12-09T13:11:07.285Z,18.20
2022-12-09T13:14:12.263Z,18.65
2022-12-09T13:17:15.275Z,18.65
2022-12-09T13:20:17.301Z,18.13
2022-12-09T13:23:31.261Z,17.95
2022-12-09T13:26:32.271Z,18.73
2022-12-09T13:30:09.548Z,18.20
2022-12-09T13:33:27.290Z,20.42
2022-12-09T13:36:52.272Z,20.20
2022-12-09T13:39:53.402Z,21.25
2022-12-09T13:43:02.323Z,21.08
2022-12-09T13:46:05.301Z,22.73
2022-12-09T13:49:07.268Z,21.75
2022-12-09T13:52:12.525Z,23.00
2022-12-09T13:55:06.269Z,25.58
2022-12-09T13:58:15.276Z,22.77
2022-12-09T14:01:25.270Z,24.80
2022-12-09T14:04:32.284Z,23.73
2022-12-09T14:07:42.344Z,23.40
2022-12-09T14:10:52.273Z,22.23
2022-12-09T14:13:53.538Z,20.83
2022-12-09T14:16:54.276Z,21.73
2022-12-09T14:20:05.548Z,22.75
2022-12-09T14:23:26.272Z,16.20
2022-12-09T14:26:50.295Z,21.70
2022-12-09T14:30:00.310Z,22.85
2022-12-09T14:33:03.279Z,24.08
2022-12-09T14:36:08.320Z,24.85
2022-12-09T14:39:25.129Z,23.45
2022-12-09T14:42:40.296Z,22.83
2022-12-09T14:46:18.271Z,18.42
2022-12-09T14:49:42.810Z,16.10
2022-12-09T14:52:49.277Z,14.80
2022-12-09T14:55:54.300Z,15.23
2022-12-09T14:59:01.281Z,17.00
2022-12-09T15:02:16.334Z,15.75
2022-12-09T15:05:17.359Z,14.27
2022-12-09T15:08:18.349Z,15.38
2022-12-09T15:11:26.348Z,15.15
2022-12-09T15:14:35.311Z,16.15
2022-12-09T15:17:45.304Z,15.60
2022-12-09T15:20:51.305Z,15.95
2022-12-09T15:23:54.387Z,16.55
2022-12-09T15:26:55.331Z,16.25
2022-12-09T15:29:56.294Z,15.50
2022-12-09T15:32:58.304Z,17.05
2022-12-09T15:36:23.332Z,17.08
2022-12-09T15:39:26.306Z,18.42
2022-12-09T15:42:33.319Z,18.20
2022-12-09T15:45:37.290Z,18.08
2022-12-09T15:48:45.326Z,19.77
2022-12-09T15:51:47.322Z,21.35
2022-12-09T15:54:52.379Z,20.10
2022-12-09T15:57:53.325Z,21.13
2022-12-09T16:00:57.332Z,21.98
2022-12-09T16:04:03.346Z,21.38
2022-12-09T16:07:04.356Z,21.15
2022-12-09T16:10:33.538Z,22.08
2022-12-09T16:13:34.333Z,21.60
2022-12-09T16:16:49.324Z,21.90
2022-12-09T16:19:50.358Z,24.23
2022-12-09T16:22:51.344Z,23.85
2022-12-09T16:26:04.903Z,24.63
2022-12-09T16:29:28.349Z,25.63
2022-12-09T16:32:32.327Z,26.58
2022-12-09T16:35:34.385Z,25.42
2022-12-09T16:38:35.632Z,23.77
2022-12-09T16:42:08.343Z,25.48
2022-12-09T16:45:44.358Z,24.30
2022-12-09T16:48:45.363Z,26.13
2022-12-09T16:51:46.389Z,26.75
2022-12-09T16:54:47.344Z,26.80
2022-12-09T16:57:49.348Z,27.77
2022-12-09T17:00:50.348Z,28.27
2022-12-09T17:03:55.338Z,28.27
2022-12-09T17:06:56.369Z,28.15
2022-12-09T17:09:57.324Z,29.45
2022-12-09T17:12:58.372Z,26.90
2022-12-09T17:15:59.472Z,29.15
2022-12-09T17:19:00.353Z,26.77
2022-12-09T17:22:01.328Z,30.48
2022-12-09T17:25:02.403Z,30.05
2022-12-09T17:28:03.380Z,28.73
2022-12-09T17:31:04.352Z,28.17
2022-12-09T17:34:05.545Z,28.40
2022-12-09T17:37:06.451Z,27.23
2022-12-09T17:40:07.452Z,27.63
2022-12-09T17:43:08.362Z,27.98
2022-12-09T17:46:12.383Z,27.42
2022-12-09T17:49:14.322Z,26.00
2022-12-09T17:52:16.356Z,27.73
2022-12-09T17:55:17.341Z,25.25
2022-12-09T17:58:18.638Z,26.45
2022-12-09T18:01:26.388Z,24.77
2022-12-09T18:04:28.364Z,24.33
2022-12-09T18:07:29.344Z,23.80
2022-12-09T18:10:23.398Z,23.33
2022-12-09T18:13:24.355Z,22.67
2022-12-09T18:16:25.396Z,22.75
2022-12-09T18:19:29.346Z,22.02
2022-12-09T18:22:30.382Z,24.08
2022-12-09T18:25:32.368Z,22.90
2022-12-09T18:28:34.401Z,22.40
2022-12-09T18:31:35.367Z,22.90
2022-12-09T18:34:42.334Z,22.38
2022-12-09T18:37:43.403Z,21.13
2022-12-09T18:41:05.403Z,25.23
2022-12-09T18:44:07.424Z,22.67
2022-12-09T18:47:08.405Z,22.67
2022-12-09T18:50:09.750Z,24.48
2022-12-09T18:53:11.364Z,24.40
2022-12-09T18:56:12.379Z,25.33
2022-12-09T18:59:13.393Z,28.17
2022-12-09T19:02:14.491Z,25.27
2022-12-09T19:05:15.378Z,25.25
2022-12-09T19:08:18.411Z,24.30
2022-12-09T19:11:19.396Z,24.70
2022-12-09T19:14:21.412Z,26.02
2022-12-09T19:17:25.419Z,24.75
2022-12-09T19:20:26.361Z,25.23
2022-12-09T19:23:27.376Z,27.17
2022-12-09T19:26:34.375Z,28.17
2022-12-09T19:29:36.383Z,27.60
2022-12-09T19:32:52.893Z,27.52
2022-12-09T19:35:54.597Z,27.20
2022-12-09T19:38:55.371Z,28.00
2022-12-09T19:41:57.402Z,28.17
2022-12-09T19:45:03.028Z,26.58
2022-12-09T19:48:05.432Z,27.65
2022-12-09T19:51:06.417Z,26.35
2022-12-09T19:54:08.395Z,26.13
2022-12-09T19:57:10.538Z,25.58
2022-12-09T20:00:13.447Z,29.50
2022-12-09T20:03:14.701Z,28.92
2022-12-09T20:06:15.403Z,27.77
2022-12-09T20:09:21.449Z,29.08
2022-12-09T20:12:22.451Z,27.75
2022-12-09T20:15:23.420Z,29.20
2022-12-09T20:18:24.435Z,29.85
2022-12-09T20:21:26.421Z,28.13
2022-12-09T20:24:27.452Z,28.73
2022-12-09T20:27:28.469Z,31.05
2022-12-09T20:30:30.386Z,28.95
2022-12-09T20:33:31.423Z,27.05
2022-12-09T20:36:34.388Z,30.25
2022-12-09T20:39:35.407Z,28.98
2022-12-09T20:42:36.416Z,29.50
2022-12-09T20:45:38.474Z,27.73
2022-12-09T20:48:39.456Z,26.58
2022-12-09T20:51:46.434Z,28.23
2022-12-09T20:54:47.414Z,28.88
2022-12-09T20:57:48.422Z,27.42
2022-12-09T21:00:49.427Z,28.17
2022-12-09T21:03:51.509Z,27.65
2022-12-09T21:06:53.407Z,27.75
2022-12-09T21:09:54.418Z,28.20
2022-12-09T21:12:55.414Z,28.75
2022-12-09T21:15:56.794Z,28.75
2022-12-09T21:18:57.423Z,27.85
2022-12-09T21:21:58.420Z,27.77
2022-12-09T21:25:00.422Z,28.25
2022-12-09T21:28:03.433Z,27.38
2022-12-09T21:31:05.419Z,27.25
2022-12-09T21:34:08.405Z,26.40
2022-12-09T21:37:09.401Z,27.75
2022-12-09T21:40:10.751Z,27.70
2022-12-09T21:43:11.411Z,29.90
2022-12-09T21:46:19.471Z,31.17
2022-12-09T21:49:20.405Z,29.50
2022-12-09T21:52:21.517Z,27.08
2022-12-09T21:55:22.423Z,27.15
2022-12-09T21:58:24.438Z,31.08
2022-12-09T22:01:41.509Z,28.92
2022-12-09T22:04:42.432Z,29.67
2022-12-09T22:07:43.569Z,30.05
2022-12-09T22:10:44.464Z,29.75
2022-12-09T22:13:45.421Z,30.95
2022-12-09T22:16:52.505Z,31.90
2022-12-09T22:20:22.607Z,33.60
2022-12-09T22:23:14.444Z,35.92
2022-12-09T22:26:19.431Z,35.35
2022-12-09T22:29:20.430Z,37.13
2022-12-09T22:32:21.445Z,36.20
2022-12-09T22:35:23.442Z,34.90
2022-12-09T22:38:24.412Z,34.63
2022-12-09T22:41:29.425Z,34.33
2022-12-09T22:44:31.712Z,35.10
2022-12-09T22:47:32.416Z,33.97
2022-12-09T22:50:33.477Z,35.00
2022-12-09T22:53:34.417Z,35.33
2022-12-09T22:56:37.447Z,35.38
2022-12-09T22:59:42.820Z,35.72
2022-12-09T23:02:43.587Z,35.47
2022-12-09T23:05:45.443Z,35.22
2022-12-09T23:08:46.443Z,35.28
2022-12-09T23:11:47.485Z,35.40
2022-12-09T23:14:50.864Z,37.20
2022-12-09T23:17:51.507Z,37.03
2022-12-09T23:20:52.434Z,35.70
2022-12-09T23:23:55.513Z,36.53
2022-12-09T23:26:56.459Z,37.08
2022-12-09T23:29:57.469Z,35.85
2022-12-09T23:32:58.444Z,35.28
2022-12-09T23:35:59.473Z,37.22
2022-12-09T23:42:01.543Z,36.50
2022-12-09T23:45:02.508Z,35.20
2022-12-09T23:51:04.444Z,34.58
2022-12-09T23:54:07.480Z,37.85
2022-12-09T23:57:08.472Z,35.67
